createdAt,value
2019-03-05T00:03:04.051Z,6.90
2019-03-05T00:08:07.565Z,6.90
2019-03-05T00:13:09.362Z,6.90
2019-03-05T00:18:11.306Z,7.00
2019-03-05T00:23:14.546Z,7.00
2019-03-05T00:28:47.352Z,7.00
2019-03-05T00:34:03.758Z,7.10
2019-03-05T00:39:34.526Z,7.10
2019-03-05T00:45:28.511Z,6.90
2019-03-05T00:50:41.345Z,6.80
2019-03-05T00:56:00.129Z,6.70
2019-03-05T01:01:19.083Z,6.70
2019-03-05T01:06:23.885Z,6.70
2019-03-05T01:11:25.958Z,6.60
2019-03-05T01:16:31.824Z,6.50
2019-03-05T01:21:34.025Z,6.40
2019-03-05T01:26:35.526Z,6.30
2019-03-05T01:31:55.662Z,6.20
2019-03-05T01:37:03.682Z,6.10
2019-03-05T01:42:06.618Z,6.00
2019-03-05T01:47:10.024Z,5.90
2019-03-05T01:52:11.643Z,5.80
2019-03-05T01:57:15.501Z,5.70
2019-03-05T02:02:16.885Z,5.70
2019-03-05T02:07:20.717Z,5.60
2019-03-05T02:12:22.369Z,5.50
2019-03-05T02:17:23.655Z,5.50
2019-03-05T02:22:30.420Z,5.40
2019-03-05T02:28:05.344Z,5.40
2019-03-05T02:33:33.743Z,5.40
2019-03-05T02:38:46.565Z,5.30
2019-03-05T02:43:59.794Z,5.30
2019-03-05T02:49:32.378Z,5.30
2019-03-05T02:54:56.999Z,5.40
2019-03-05T02:59:58.322Z,5.30
2019-03-05T03:05:01.781Z,5.30
2019-03-05T03:10:14.749Z,5.30
2019-03-05T03:15:16.581Z,5.40
2019-03-05T03:20:18.832Z,5.40
2019-03-05T03:25:21.612Z,5.40
2019-03-05T03:30:23.875Z,5.50
2019-03-05T03:35:26.074Z,5.50
2019-03-05T03:40:28.663Z,5.60
2019-03-05T03:45:30.283Z,5.60
2019-03-05T03:50:31.568Z,5.60
2019-03-05T03:55:34.501Z,5.60
2019-03-05T04:00:35.799Z,5.70
2019-03-05T04:05:37.324Z,5.70
2019-03-05T04:10:38.587Z,5.70
2019-03-05T04:15:39.918Z,5.70
2019-03-05T04:20:43.129Z,5.70
2019-03-05T04:25:44.518Z,5.60
2019-03-05T04:30:45.857Z,5.60
2019-03-05T04:35:47.209Z,5.70
2019-03-05T04:40:48.572Z,5.70
2019-03-05T04:46:03.587Z,5.70
2019-03-05T04:51:09.408Z,5.70
2019-03-05T04:56:30.767Z,5.70
2019-03-05T05:01:32.160Z,5.70
2019-03-05T05:06:33.566Z,5.70
2019-03-05T05:11:34.917Z,5.70
2019-03-05T05:16:36.241Z,5.70
2019-03-05T05:21:40.044Z,5.60
2019-03-05T05:26:41.430Z,5.60
2019-03-05T05:31:44.145Z,5.60
2019-03-05T05:36:45.512Z,5.60
2019-03-05T05:41:48.387Z,5.60
2019-03-05T05:46:51.607Z,5.60
2019-03-05T05:51:54.234Z,5.60
2019-03-05T05:56:57.568Z,5.60
2019-03-05T06:01:58.948Z,5.50
2019-03-05T06:07:00.682Z,5.50
2019-03-05T06:12:04.015Z,5.50
2019-03-05T06:17:05.409Z,5.40
2019-03-05T06:22:06.871Z,5.40
2019-03-05T06:27:08.300Z,5.30
2019-03-05T06:32:11.818Z,5.30
2019-03-05T06:37:13.177Z,5.20
2019-03-05T06:42:14.657Z,5.20
2019-03-05T06:47:16.009Z,5.20
2019-03-05T06:52:17.315Z,5.20
2019-03-05T06:57:18.653Z,5.30
2019-03-05T07:02:20.018Z,5.40
2019-03-05T07:07:21.309Z,5.40
2019-03-05T07:12:37.401Z,5.40
2019-03-05T07:18:09.717Z,5.50
2019-03-05T07:23:58.867Z,5.50
2019-03-05T07:29:00.363Z,5.50
2019-03-05T07:34:02.547Z,5.60
2019-03-05T07:39:09.306Z,5.60
2019-03-05T07:44:11.811Z,5.60
2019-03-05T07:49:13.139Z,5.60
2019-03-05T07:54:14.691Z,5.60
2019-03-05T07:59:16.105Z,5.70
2019-03-05T08:04:17.868Z,5.70
2019-03-05T08:09:32.119Z,5.80
2019-03-05T08:14:53.878Z,5.90
2019-03-05T08:19:55.293Z,5.90
2019-03-05T08:24:56.922Z,6.00
2019-03-05T08:29:58.555Z,6.10
2019-03-05T08:35:00.438Z,6.20
2019-03-05T08:40:05.717Z,6.30
2019-03-05T08:45:12.060Z,6.40
2019-03-05T08:50:14.727Z,6.40
2019-03-05T08:55:16.155Z,6.50
2019-03-05T09:00:19.801Z,6.50
2019-03-05T09:05:22.502Z,6.60
2019-03-05T09:10:26.180Z,6.70
2019-03-05T09:15:27.926Z,6.90
2019-03-05T09:20:29.861Z,7.00
2019-03-05T09:25:34.615Z,7.20
2019-03-05T09:30:36.190Z,7.30
2019-03-05T09:35:37.664Z,7.40
2019-03-05T09:40:39.202Z,7.40
2019-03-05T09:45:40.654Z,7.50
2019-03-05T09:50:42.164Z,7.60
2019-03-05T09:55:45.247Z,7.60
2019-03-05T10:00:46.646Z,7.70
2019-03-05T10:05:48.331Z,7.80
2019-03-05T10:10:49.942Z,7.90
2019-03-05T10:15:53.380Z,8.00
2019-03-05T10:20:54.717Z,8.20
2019-03-05T10:25:56.350Z,8.30
2019-03-05T10:30:57.752Z,8.40
2019-03-05T10:35:59.143Z,8.30
2019-03-05T10:41:00.750Z,8.20
2019-03-05T10:46:03.682Z,8.20
2019-03-05T10:51:06.020Z,8.40
2019-03-05T10:56:08.027Z,8.70
2019-03-05T11:01:11.375Z,8.90
2019-03-05T11:06:13.154Z,9.00
2019-03-05T11:11:14.458Z,9.10
2019-03-05T11:16:16.269Z,9.20
2019-03-05T11:21:18.227Z,9.30
2019-03-05T11:26:19.950Z,9.40
2019-03-05T11:31:22.767Z,9.40
2019-03-05T11:36:24.336Z,9.50
2019-03-05T11:41:44.107Z,9.50
2019-03-05T11:46:45.510Z,9.40
2019-03-05T11:51:47.130Z,9.30
2019-03-05T11:56:48.522Z,9.20
2019-03-05T12:01:49.883Z,9.10
2019-03-05T12:06:51.180Z,9.10
2019-03-05T12:11:52.972Z,9.40
2019-03-05T12:16:54.329Z,9.70
2019-03-05T12:21:56.374Z,9.70
2019-03-05T12:26:59.359Z,9.70
2019-03-05T12:32:00.739Z,9.80
2019-03-05T12:37:03.409Z,9.90
2019-03-05T12:42:05.067Z,10.00
2019-03-05T12:47:08.338Z,10.00
2019-03-05T12:52:09.997Z,10.10
2019-03-05T12:57:11.848Z,10.10
2019-03-05T13:02:16.387Z,10.10
2019-03-05T13:07:19.039Z,10.00
2019-03-05T13:12:20.559Z,10.00
2019-03-05T13:17:21.962Z,10.10
2019-03-05T13:22:24.860Z,10.10
2019-03-05T13:27:28.058Z,10.00
2019-03-05T13:32:29.579Z,10.10
2019-03-05T13:37:30.898Z,10.30
2019-03-05T13:42:35.168Z,10.50
2019-03-05T13:47:43.676Z,10.60
2019-03-05T13:53:23.808Z,10.60
2019-03-05T13:58:53.764Z,10.60
2019-03-05T14:04:02.036Z,10.80
2019-03-05T14:09:13.410Z,10.90
2019-03-05T14:14:21.511Z,11.00
2019-03-05T14:19:23.580Z,11.00
2019-03-05T14:24:26.794Z,10.90
2019-03-05T14:29:29.443Z,10.80
2019-03-05T14:34:31.078Z,10.70
2019-03-05T14:39:33.911Z,10.60
2019-03-05T14:44:40.146Z,10.50
2019-03-05T14:49:42.076Z,10.50
2019-03-05T14:54:43.750Z,10.60
2019-03-05T14:59:47.376Z,10.60
2019-03-05T15:04:48.980Z,10.70
2019-03-05T15:09:50.582Z,10.80
2019-03-05T15:14:51.966Z,10.80
2019-03-05T15:19:53.462Z,10.70
2019-03-05T15:24:54.850Z,10.70
2019-03-05T15:29:56.166Z,10.70
2019-03-05T15:34:57.535Z,10.60
2019-03-05T15:39:58.914Z,10.50
2019-03-05T15:45:00.517Z,10.50
2019-03-05T15:50:03.954Z,10.40
2019-03-05T15:55:09.739Z,10.40
2019-03-05T16:00:31.691Z,10.30
2019-03-05T16:05:33.183Z,10.20
2019-03-05T16:10:36.430Z,10.10
2019-03-05T16:15:37.775Z,10.00
2019-03-05T16:20:39.559Z,9.90
2019-03-05T16:25:41.463Z,9.80
2019-03-05T16:30:47.844Z,9.70
2019-03-05T16:36:00.291Z,9.60
2019-03-05T16:41:03.668Z,9.50
2019-03-05T16:46:10.183Z,9.30
2019-03-05T16:51:13.521Z,9.30
2019-03-05T16:56:35.580Z,9.20
2019-03-05T17:07:21.255Z,9.00
2019-03-05T17:12:22.719Z,8.90
2019-03-05T17:17:24.383Z,8.80
2019-03-05T17:22:25.992Z,8.60
2019-03-05T17:27:27.361Z,8.50
2019-03-05T17:32:29.116Z,8.30
2019-03-05T17:37:30.539Z,8.20
2019-03-05T17:42:32.420Z,8.00
2019-03-05T17:47:33.751Z,7.90
2019-03-05T17:52:35.306Z,7.80
2019-03-05T17:57:36.587Z,7.80
2019-03-05T18:02:38.248Z,7.70
2019-03-05T18:07:39.726Z,7.60
2019-03-05T18:12:41.383Z,7.50
2019-03-05T18:23:03.211Z,7.30
2019-03-05T18:28:04.784Z,7.30
2019-03-05T18:33:06.291Z,7.20
2019-03-05T18:38:07.919Z,7.10
2019-03-05T18:43:09.451Z,7.10
2019-03-05T18:48:10.942Z,7.00
2019-03-05T18:53:12.555Z,7.00
2019-03-05T18:58:14.422Z,6.90
2019-03-05T19:03:18.468Z,6.90
2019-03-05T19:08:21.456Z,6.90
2019-03-05T19:13:23.891Z,6.90
2019-03-05T19:18:25.404Z,6.90
2019-03-05T19:23:26.949Z,6.80
2019-03-05T19:28:28.557Z,6.80
2019-03-05T19:33:29.943Z,6.80
2019-03-05T19:38:31.268Z,6.70
2019-03-05T19:43:32.691Z,6.70
2019-03-05T19:48:33.964Z,6.70
2019-03-05T19:53:35.418Z,6.70
2019-03-05T19:58:36.817Z,6.70
2019-03-05T20:03:39.334Z,6.70
2019-03-05T20:08:40.955Z,6.60
2019-03-05T20:13:42.945Z,6.60
2019-03-05T20:18:44.486Z,6.60
2019-03-05T20:23:45.814Z,6.60
2019-03-05T20:28:47.130Z,6.60
2019-03-05T20:33:50.071Z,6.60
2019-03-05T20:38:51.401Z,6.70
2019-03-05T20:43:52.778Z,6.70
2019-03-05T20:48:54.104Z,6.70
2019-03-05T20:53:57.561Z,6.70
2019-03-05T20:58:58.994Z,6.80
2019-03-05T21:04:00.695Z,6.80
2019-03-05T21:09:06.255Z,6.80
2019-03-05T21:14:09.601Z,6.90
2019-03-05T21:19:12.811Z,7.00
2019-03-05T21:24:14.101Z,7.10
2019-03-05T21:29:15.528Z,7.20
2019-03-05T21:34:16.913Z,7.30
2019-03-05T21:39:18.448Z,7.30
2019-03-05T21:44:19.733Z,7.40
2019-03-05T21:49:21.068Z,7.40
2019-03-05T21:54:22.508Z,7.50
2019-03-05T21:59:24.031Z,7.60
2019-03-05T22:04:25.674Z,7.60
2019-03-05T22:09:29.203Z,7.70
2019-03-05T22:14:30.669Z,7.80
2019-03-05T22:19:31.975Z,7.80
2019-03-05T22:24:33.298Z,7.80
2019-03-05T22:29:34.619Z,7.90
2019-03-05T22:34:36.258Z,7.90
2019-03-05T22:39:37.798Z,8.00
2019-03-05T22:44:39.057Z,8.00
2019-03-05T22:49:40.617Z,8.00
2019-03-05T22:54:42.219Z,8.10
2019-03-05T22:59:43.702Z,8.10
2019-03-05T23:04:45.318Z,8.10
2019-03-05T23:09:48.458Z,8.10
2019-03-05T23:14:52.204Z,8.10
2019-03-05T23:19:53.764Z,8.00
2019-03-05T23:24:55.240Z,8.00
2019-03-05T23:29:56.828Z,8.00
2019-03-05T23:34:58.426Z,8.00
2019-03-05T23:40:00.301Z,8.00
2019-03-05T23:45:03.508Z,8.00
2019-03-05T23:50:08.694Z,8.00
2019-03-05T23:55:12.998Z,8.00
